Time;durP1;ratioP1;P1;durP2;ratioP2;P2;SDS_P1;SDS_P2;PMS_P1;PMS_P2;Temp;Humidity;BMP_temperature;BMP_pressure;BME280_temperature;BME280_humidity;BME280_pressure;Samples;Min_cycle;Max_cycle;Signal;HPM_P1;HPM_P2
2022/01/11 00:01:11;;;;;;;25.87;10.97;;;;;;;1.54;100.00;100085.19;5081001;28;20194;-73
2022/01/11 00:03:40;;;;;;;24.03;12.37;;;;;;;1.49;100.00;100090.09;5089875;28;20255;-73
2022/01/11 00:06:20;;;;;;;27.20;11.77;;;;;;;1.51;100.00;100091.03;5070713;28;20671;-73
2022/01/11 00:08:48;;;;;;;18.97;9.60;;;;;;;1.47;100.00;100095.09;5071940;28;20203;-72
2022/01/11 00:11:15;;;;;;;22.60;10.13;;;;;;;1.50;100.00;100102.91;5089661;28;20190;-73
2022/01/11 00:13:43;;;;;;;22.33;10.87;;;;;;;1.39;100.00;100091.25;5091219;28;20201;-73
2022/01/11 00:16:13;;;;;;;25.10;12.30;;;;;;;1.42;100.00;100104.22;5089731;28;20217;-74
2022/01/11 00:18:40;;;;;;;23.30;11.00;;;;;;;1.40;100.00;100105.81;5089842;28;20232;-73
2022/01/11 00:21:07;;;;;;;20.90;8.67;;;;;;;1.41;100.00;100110.13;5082942;28;20289;-73
2022/01/11 00:26:18;;;;;;;28.43;12.57;;;;;;;1.48;100.00;100114.75;5087636;28;20209;-72
2022/01/11 00:28:46;;;;;;;34.27;14.80;;;;;;;1.50;100.00;100115.69;5079658;28;20252;-72
2022/01/11 00:31:13;;;;;;;33.20;13.33;;;;;;;1.48;100.00;100112.19;5084964;28;20187;-73
2022/01/11 00:33:43;;;;;;;26.70;12.67;;;;;;;1.31;100.00;100125.78;5091612;28;20202;-73
2022/01/11 00:36:11;;;;;;;22.57;10.93;;;;;;;1.30;100.00;100129.13;5090984;28;20229;-73
2022/01/11 00:38:40;;;;;;;21.73;10.40;;;;;;;1.34;100.00;100138.69;5091092;28;20195;-73
2022/01/11 00:41:09;;;;;;;28.63;13.30;;;;;;;1.30;100.00;100141.00;5085765;28;20187;-72
2022/01/11 00:43:37;;;;;;;24.90;8.47;;;;;;;1.32;100.00;100153.03;5085675;28;20202;-72
2022/01/11 00:46:06;;;;;;;28.00;12.37;;;;;;;1.25;100.00;100143.31;5075187;28;20194;-72
2022/01/11 00:48:35;;;;;;;12.67;6.23;;;;;;;1.20;100.00;100154.09;5088421;28;20263;-73
2022/01/11 00:51:02;;;;;;;20.83;9.03;;;;;;;1.25;100.00;100156.06;5093527;28;20343;-73
2022/01/11 00:53:29;;;;;;;19.50;9.60;;;;;;;0.95;100.00;100094.09;5094780;28;20221;-73
2022/01/11 00:55:56;;;;;;;24.93;11.77;;;;;;;1.16;100.00;100131.75;5095406;28;20198;-72
2022/01/11 00:58:23;;;;;;;26.33;10.90;;;;;;;1.26;100.00;100154.41;5093467;28;20190;-73
2022/01/11 01:00:50;;;;;;;26.00;9.63;;;;;;;1.12;100.00;100155.34;5079245;28;20696;-72
2022/01/11 01:03:19;;;;;;;18.80;8.17;;;;;;;1.22;100.00;100165.25;5094922;28;20653;-73
2022/01/11 01:05:47;;;;;;;15.13;7.47;;;;;;;1.21;100.00;100163.50;5093552;28;20229;-73
2022/01/11 01:08:14;;;;;;;12.27;6.97;;;;;;;0.95;100.00;100121.28;5075307;28;20193;-73
2022/01/11 01:10:46;;;;;;;9.50;5.30;;;;;;;1.03;100.00;100148.09;5075495;28;20199;-73
2022/01/11 01:13:17;;;;;;;14.70;7.07;;;;;;;1.15;100.00;100174.25;5094507;28;20205;-74
2022/01/11 01:15:46;;;;;;;21.40;11.00;;;;;;;0.88;100.00;100144.72;5081785;28;20587;-72
2022/01/11 01:18:15;;;;;;;10.67;7.33;;;;;;;1.04;100.00;100167.69;5074673;28;20194;-73
2022/01/11 01:20:44;;;;;;;15.33;7.73;;;;;;;1.05;100.00;100169.47;5076158;28;20304;-72
2022/01/11 01:23:12;;;;;;;18.70;9.90;;;;;;;0.94;100.00;100186.75;5081561;28;20201;-73
2022/01/11 01:25:39;;;;;;;16.23;7.70;;;;;;;0.95;100.00;100187.63;5089655;28;20207;-72
2022/01/11 01:28:06;;;;;;;21.03;10.77;;;;;;;0.99;100.00;100180.25;5080202;28;20206;-73
2022/01/11 01:30:33;;;;;;;16.43;6.40;;;;;;;0.87;100.00;100159.16;5074418;28;20280;-74
2022/01/11 01:33:00;;;;;;;15.03;7.77;;;;;;;0.94;100.00;100191.88;5085526;28;20194;-73
2022/01/11 01:35:33;;;;;;;8.73;5.87;;;;;;;0.95;100.00;100195.28;5073101;28;20195;-73
2022/01/11 01:38:01;;;;;;;18.37;8.13;;;;;;;0.99;100.00;100193.00;5074270;28;20276;-72
2022/01/11 01:40:35;;;;;;;17.63;8.70;;;;;;;0.94;100.00;100188.44;5075833;28;20198;-73
2022/01/11 01:43:02;;;;;;;11.20;6.50;;;;;;;0.90;100.00;100191.59;5079567;28;20634;-73
2022/01/11 01:45:29;;;;;;;12.17;7.33;;;;;;;0.90;100.00;100194.16;5085153;28;20216;-73
2022/01/11 01:47:58;;;;;;;15.07;8.77;;;;;;;0.93;100.00;100195.19;5094221;28;20280;-72
2022/01/11 01:50:26;;;;;;;11.73;7.63;;;;;;;0.79;100.00;100174.81;5093982;28;20205;-73
2022/01/11 01:52:53;;;;;;;20.17;5.47;;;;;;;0.90;100.00;100204.38;5083511;28;20201;-73
2022/01/11 01:55:21;;;;;;;7.90;5.27;;;;;;;1.04;100.00;100211.09;5080468;28;20191;-73
2022/01/11 01:57:50;;;;;;;11.07;7.03;;;;;;;0.98;100.00;100205.66;5074010;28;20222;-72
2022/01/11 02:00:18;;;;;;;9.70;5.93;;;;;;;1.00;100.00;100211.72;5086765;28;20194;-73
2022/01/11 02:02:45;;;;;;;15.93;8.13;;;;;;;0.92;100.00;100216.44;5075983;28;20191;-73
2022/01/11 02:05:12;;;;;;;16.60;6.37;;;;;;;0.88;100.00;100218.72;5089892;28;20611;-72
2022/01/11 02:07:39;;;;;;;7.30;5.70;;;;;;;0.83;100.00;100217.56;5092841;28;20182;-73
2022/01/11 02:10:08;;;;;;;15.97;7.83;;;;;;;0.88;100.00;100226.38;5093352;28;20194;-72
2022/01/11 02:12:37;;;;;;;6.47;4.93;;;;;;;0.88;100.00;100221.28;5077739;28;20195;-73
2022/01/11 02:15:05;;;;;;;17.60;10.33;;;;;;;0.97;100.00;100231.97;5090980;28;20247;-72
2022/01/11 02:17:33;;;;;;;8.87;5.80;;;;;;;0.87;100.00;100228.06;5091561;28;20241;-73
2022/01/11 02:20:00;;;;;;;7.23;6.03;;;;;;;0.85;100.00;100236.44;5092700;28;20231;-73
2022/01/11 02:22:28;;;;;;;17.70;6.83;;;;;;;0.96;100.00;100240.44;5093113;28;20201;-73
2022/01/11 02:24:55;;;;;;;19.20;8.33;;;;;;;0.83;100.00;100243.09;5082947;28;20209;-72
2022/01/11 02:27:22;;;;;;;14.83;7.90;;;;;;;0.79;100.00;100244.59;5084836;28;20193;-72
2022/01/11 02:29:49;;;;;;;9.37;5.07;;;;;;;0.90;100.00;100251.19;5076645;28;20218;-72
2022/01/11 02:32:16;;;;;;;12.83;7.27;;;;;;;0.85;100.00;100254.28;5073070;28;20249;-72
2022/01/11 02:34:43;;;;;;;16.07;7.73;;;;;;;0.83;100.00;100255.84;5073090;28;20194;-72
2022/01/11 02:37:09;;;;;;;12.10;6.47;;;;;;;0.83;100.00;100253.31;5078985;28;20226;-73
2022/01/11 02:39:38;;;;;;;14.40;8.57;;;;;;;0.98;100.00;100275.47;5072949;28;20206;-73
2022/01/11 02:42:06;;;;;;;8.43;5.07;;;;;;;0.84;100.00;100275.50;5075890;28;20198;-73
2022/01/11 02:44:33;;;;;;;6.57;4.53;;;;;;;0.60;100.00;100243.50;5076528;28;20248;-72
2022/01/11 02:47:00;;;;;;;17.07;9.97;;;;;;;0.71;100.00;100288.34;5072986;28;20198;-72
2022/01/11 02:49:27;;;;;;;14.30;8.33;;;;;;;0.74;100.00;100293.63;5080636;28;20536;-72
2022/01/11 02:51:54;;;;;;;17.03;9.03;;;;;;;0.62;100.00;100282.72;5091678;28;20194;-73
2022/01/11 02:54:21;;;;;;;10.03;7.53;;;;;;;0.71;100.00;100283.25;5092383;28;20198;-72
2022/01/11 02:56:49;;;;;;;6.07;5.40;;;;;;;0.76;100.00;100292.03;5081525;28;20222;-72
2022/01/11 02:59:16;;;;;;;12.60;6.70;;;;;;;0.82;100.00;100302.59;5072766;28;20209;-73
2022/01/11 03:01:43;;;;;;;12.90;7.90;;;;;;;0.74;100.00;100304.72;5077633;28;20194;-74
2022/01/11 03:04:10;;;;;;;14.47;8.20;;;;;;;0.75;100.00;100300.50;5091616;28;20628;-73
2022/01/11 03:06:37;;;;;;;12.50;5.93;;;;;;;0.68;100.00;100306.06;5071013;28;20219;-74
2022/01/11 03:09:04;;;;;;;7.73;5.20;;;;;;;0.74;100.00;100301.28;5072464;28;20637;-72
2022/01/11 03:11:32;;;;;;;16.27;8.67;;;;;;;0.72;100.00;100308.84;5074837;28;20242;-73
2022/01/11 03:14:02;;;;;;;10.47;6.83;;;;;;;0.71;100.00;100313.88;5072158;28;20281;-73
2022/01/11 03:16:29;;;;;;;8.37;5.97;;;;;;;0.69;100.00;100318.00;5088401;28;20251;-73
2022/01/11 03:18:56;;;;;;;12.73;6.73;;;;;;;0.68;100.00;100318.81;5090128;28;20198;-73
2022/01/11 03:21:23;;;;;;;13.77;7.17;;;;;;;0.68;100.00;100313.69;5088953;28;20734;-72
2022/01/11 03:23:50;;;;;;;11.97;7.60;;;;;;;0.60;100.00;100299.63;5072037;28;20669;-72
2022/01/11 03:26:17;;;;;;;22.20;10.57;;;;;;;0.70;100.00;100310.44;5071958;28;20723;-72
2022/01/11 03:28:43;;;;;;;13.00;6.50;;;;;;;0.56;100.00;100324.06;5072304;28;20260;-72
2022/01/11 03:31:12;;;;;;;15.27;8.70;;;;;;;0.54;100.00;100325.63;5082696;28;20194;-72
2022/01/11 03:33:38;;;;;;;12.50;8.10;;;;;;;0.50;100.00;100318.59;5072115;28;20198;-73
2022/01/11 03:36:05;;;;;;;11.17;5.83;;;;;;;0.24;100.00;100276.28;5091284;28;20582;-73
2022/01/11 03:38:34;;;;;;;10.43;7.03;;;;;;;0.50;100.00;100329.69;5092030;28;20222;-72
2022/01/11 03:41:01;;;;;;;8.70;5.83;;;;;;;0.48;100.00;100327.84;5092025;28;20194;-72
2022/01/11 03:43:28;;;;;;;16.03;7.83;;;;;;;0.48;100.00;100328.72;5075161;28;20197;-72
2022/01/11 03:45:55;;;;;;;12.50;7.93;;;;;;;0.25;100.00;100308.63;5090087;28;20201;-71
2022/01/11 03:48:23;;;;;;;16.60;8.33;;;;;;;0.44;100.00;100328.44;5091696;28;20199;-72
2022/01/11 03:50:54;;;;;;;10.57;7.70;;;;;;;0.42;100.00;100332.59;5091959;28;20669;-72
2022/01/11 03:53:28;;;;;;;21.10;8.80;;;;;;;0.40;100.00;100332.47;5084702;28;20195;-72
2022/01/11 03:56:22;;;;;;;9.57;6.03;;;;;;;0.48;100.00;100338.91;5071427;28;20202;-72
2022/01/11 03:58:51;;;;;;;19.63;10.87;;;;;;;0.52;100.00;100347.63;5085029;28;20754;-72
2022/01/11 04:01:18;;;;;;;15.80;8.73;;;;;;;0.54;100.00;100347.72;5090322;28;20285;-71
2022/01/11 04:03:47;;;;;;;15.53;7.87;;;;;;;0.58;100.00;100353.09;5073027;28;20624;-72
2022/01/11 04:06:16;;;;;;;10.07;6.47;;;;;;;-0.22;100.00;100223.41;5070429;28;20237;-72
2022/01/11 04:08:44;;;;;;;17.30;7.27;;;;;;;0.60;100.00;100358.28;5072870;28;20190;-72
2022/01/11 04:11:11;;;;;;;17.80;8.63;;;;;;;0.53;100.00;100358.72;5071186;28;20665;-74
2022/01/11 04:13:38;;;;;;;12.77;7.17;;;;;;;0.57;100.00;100365.75;5077043;28;20235;-72
2022/01/11 04:16:05;;;;;;;8.73;5.67;;;;;;;0.47;100.00;100370.31;5071425;28;20191;-72
2022/01/11 04:18:32;;;;;;;12.93;7.23;;;;;;;0.60;100.00;100376.16;5076023;28;20660;-71
2022/01/11 04:21:00;;;;;;;11.63;6.47;;;;;;;0.54;100.00;100391.06;5092224;28;20217;-72
2022/01/11 04:23:27;;;;;;;14.07;7.17;;;;;;;0.54;100.00;100398.72;5077282;28;20199;-72
2022/01/11 04:25:54;;;;;;;15.60;9.03;;;;;;;0.35;100.00;100400.19;5076631;28;20214;-72
2022/01/11 04:28:23;;;;;;;12.00;6.80;;;;;;;0.43;100.00;100406.63;5076144;28;20189;-72
2022/01/11 04:30:49;;;;;;;14.60;7.87;;;;;;;0.40;100.00;100409.00;5082772;28;20198;-72
2022/01/11 04:33:16;;;;;;;11.57;6.70;;;;;;;0.42;100.00;100407.44;5077912;28;20681;-72
2022/01/11 04:35:48;;;;;;;12.30;6.87;;;;;;;0.35;100.00;100407.84;5074858;28;20619;-73
2022/01/11 04:38:17;;;;;;;22.90;10.47;;;;;;;0.40;100.00;100414.09;5079040;28;20229;-72
2022/01/11 04:40:44;;;;;;;19.60;10.90;;;;;;;0.27;100.00;100426.00;5093250;28;20198;-72
2022/01/11 04:43:10;;;;;;;15.73;8.53;;;;;;;0.30;100.00;100421.97;5090958;28;20726;-72
2022/01/11 04:45:37;;;;;;;24.47;11.53;;;;;;;0.36;100.00;100432.53;5095034;28;20644;-72
2022/01/11 04:48:05;;;;;;;22.67;10.40;;;;;;;0.26;100.00;100427.69;5095135;28;20202;-72
2022/01/11 04:50:32;;;;;;;12.80;7.40;;;;;;;0.22;100.00;100420.63;5090584;28;20252;-72
2022/01/11 04:52:59;;;;;;;22.17;10.33;;;;;;;0.11;100.00;100434.38;5093390;28;20592;-73
2022/01/11 04:55:28;;;;;;;17.97;11.47;;;;;;;0.07;100.00;100432.44;5104265;28;20190;-72
2022/01/11 04:57:55;;;;;;;13.63;7.80;;;;;;;-0.01;100.00;100433.63;5103332;28;20238;-72
2022/01/11 05:00:24;;;;;;;13.20;8.17;;;;;;;-0.02;100.00;100442.06;5102609;28;20572;-73
2022/01/11 05:02:50;;;;;;;15.63;8.93;;;;;;;0.05;100.00;100444.22;5087735;28;20263;-73
2022/01/11 05:05:17;;;;;;;11.77;7.27;;;;;;;0.04;100.00;100450.09;5094571;28;20218;-73
2022/01/11 05:07:45;;;;;;;17.03;9.93;;;;;;;0.07;100.00;100470.69;5094097;28;20206;-72
2022/01/11 05:10:12;;;;;;;22.73;12.37;;;;;;;-0.02;100.00;100455.69;5085572;28;20186;-73
2022/01/11 05:12:41;;;;;;;13.23;8.20;;;;;;;0.00;100.00;100471.09;5094252;28;20250;-72
2022/01/11 05:15:09;;;;;;;10.47;5.53;;;;;;;-0.31;100.00;100412.22;5095575;28;20251;-73
2022/01/11 05:17:36;;;;;;;16.70;8.60;;;;;;;0.06;100.00;100480.78;5103902;28;20224;-72
2022/01/11 05:20:03;;;;;;;12.47;7.93;;;;;;;-0.09;100.00;100476.47;5098336;28;20214;-72
2022/01/11 05:22:30;;;;;;;12.80;7.33;;;;;;;-0.16;100.00;100483.63;5103707;28;20206;-73
2022/01/11 05:24:57;;;;;;;15.83;7.37;;;;;;;-0.39;100.00;100458.38;5102015;28;20194;-71
2022/01/11 05:27:24;;;;;;;17.07;9.13;;;;;;;-0.29;100.00;100496.38;5104217;28;20259;-73
2022/01/11 05:29:52;;;;;;;13.40;7.07;;;;;;;-0.41;100.00;100465.91;5089356;28;20191;-73
2022/01/11 05:32:18;;;;;;;17.47;10.40;;;;;;;-0.33;100.00;100479.13;5099498;28;20194;-73
2022/01/11 05:34:45;;;;;;;15.40;8.33;;;;;;;-0.37;100.00;100493.34;5101493;28;20227;-73
2022/01/11 05:37:12;;;;;;;24.40;10.27;;;;;;;-0.31;100.00;100495.38;5103135;28;20259;-73
2022/01/11 05:39:39;;;;;;;13.40;8.83;;;;;;;-0.47;100.00;100480.81;5098957;28;20668;-73
2022/01/11 05:42:07;;;;;;;15.87;9.37;;;;;;;-0.30;100.00;100498.06;5097611;28;20187;-73
2022/01/11 05:44:34;;;;;;;13.03;7.03;;;;;;;-0.19;100.00;100489.44;5099866;28;20195;-75
2022/01/11 05:47:05;;;;;;;24.57;10.93;;;;;;;-0.06;100.00;100497.06;5103960;28;20355;-73
2022/01/11 05:49:32;;;;;;;18.70;9.03;;;;;;;-0.55;100.00;100444.66;5102753;28;20661;-72
2022/01/11 05:51:59;;;;;;;14.93;8.77;;;;;;;-0.30;100.00;100497.16;5104451;28;20663;-73
2022/01/11 05:54:26;;;;;;;13.87;8.70;;;;;;;-0.36;100.00;100519.69;5094630;28;20592;-73
2022/01/11 05:56:52;;;;;;;13.20;8.07;;;;;;;-0.38;100.00;100511.94;5083683;28;20252;-73
2022/01/11 05:59:19;;;;;;;25.23;9.30;;;;;;;-0.32;100.00;100519.13;5091416;28;20267;-73
2022/01/11 06:01:46;;;;;;;30.07;10.13;;;;;;;-0.30;100.00;100522.63;5094152;28;20252;-73
2022/01/11 06:04:14;;;;;;;14.30;8.13;;;;;;;-0.38;100.00;100522.13;5081663;28;20263;-74
2022/01/11 06:06:41;;;;;;;12.13;7.07;;;;;;;-0.16;100.00;100504.03;5072554;28;20292;-72
2022/01/11 06:09:08;;;;;;;12.73;7.43;;;;;;;-0.31;100.00;100519.19;5083181;28;20271;-70
2022/01/11 06:11:35;;;;;;;17.90;9.93;;;;;;;-0.31;100.00;100533.59;5092525;28;20191;-71
2022/01/11 06:14:01;;;;;;;14.83;8.23;;;;;;;-0.28;100.00;100534.69;5092092;28;20198;-70
2022/01/11 06:16:28;;;;;;;12.87;6.97;;;;;;;-0.28;100.00;100538.88;5092883;28;20200;-70
2022/01/11 06:18:55;;;;;;;15.90;9.67;;;;;;;-0.41;100.00;100536.34;5090989;28;20225;-70
2022/01/11 06:21:23;;;;;;;17.40;9.27;;;;;;;-0.29;100.00;100545.69;5092748;28;20222;-71
2022/01/11 06:23:50;;;;;;;15.03;7.80;;;;;;;-0.24;100.00;100538.31;5092882;28;20202;-70
2022/01/11 06:26:17;;;;;;;14.60;7.93;;;;;;;-0.22;100.00;100552.03;5092230;28;20598;-75
2022/01/11 06:28:44;;;;;;;7.90;6.10;;;;;;;-0.27;100.00;100555.94;5091030;28;20198;-74
2022/01/11 06:31:11;;;;;;;14.97;7.63;;;;;;;-0.33;100.00;100553.91;5092559;28;20198;-74
2022/01/11 06:33:38;;;;;;;20.97;9.50;;;;;;;-0.26;100.00;100560.25;5092272;28;20194;-73
2022/01/11 06:36:09;;;;;;;16.70;9.87;;;;;;;-0.34;100.00;100559.75;5089625;28;20256;-72
2022/01/11 06:38:38;;;;;;;15.23;6.40;;;;;;;-0.84;100.00;100477.50;5089551;28;20712;-73
2022/01/11 06:41:05;;;;;;;12.30;7.00;;;;;;;-0.35;100.00;100578.38;5081366;28;20194;-75
2022/01/11 06:43:32;;;;;;;29.93;11.50;;;;;;;-0.29;100.00;100572.81;5072904;28;20202;-74
2022/01/11 06:45:58;;;;;;;15.03;10.23;;;;;;;-0.32;100.00;100570.06;5071639;28;20202;-75
2022/01/11 06:48:25;;;;;;;15.90;9.43;;;;;;;-0.32;100.00;100582.81;5073171;28;20206;-75
2022/01/11 06:50:52;;;;;;;11.93;7.47;;;;;;;-0.28;100.00;100577.09;5072304;28;20199;-72
2022/01/11 06:53:19;;;;;;;10.77;6.00;;;;;;;-0.32;100.00;100593.00;5072751;28;20199;-73
2022/01/11 06:55:47;;;;;;;17.07;9.43;;;;;;;-0.32;100.00;100595.53;5072796;28;20199;-73
2022/01/11 06:58:16;;;;;;;10.17;7.63;;;;;;;-0.46;100.00;100598.84;5073748;28;20232;-73
2022/01/11 07:00:43;;;;;;;8.93;6.67;;;;;;;-0.46;100.00;100589.50;5092251;28;20190;-73
2022/01/11 07:03:10;;;;;;;12.77;8.03;;;;;;;-0.36;100.00;100601.22;5091899;28;20190;-73
2022/01/11 07:05:36;;;;;;;12.13;6.10;;;;;;;-0.41;100.00;100598.34;5091348;28;20641;-73
2022/01/11 07:08:04;;;;;;;15.60;7.97;;;;;;;-0.36;100.00;100604.66;5090663;28;20206;-73
2022/01/11 07:10:30;;;;;;;16.33;9.77;;;;;;;-0.53;100.00;100608.59;5092163;28;20322;-74
2022/01/11 07:12:58;;;;;;;11.83;6.90;;;;;;;-0.33;100.00;100614.16;5092141;28;20205;-74
2022/01/11 07:15:25;;;;;;;18.27;8.73;;;;;;;-0.28;100.00;100617.84;5091683;28;20213;-74
2022/01/11 07:17:52;;;;;;;15.13;5.87;;;;;;;-0.53;100.00;100602.63;5091998;28;20613;-73
2022/01/11 07:20:19;;;;;;;14.80;8.67;;;;;;;-0.25;100.00;100620.63;5092669;28;20579;-74
2022/01/11 07:22:46;;;;;;;22.83;11.10;;;;;;;-0.31;100.00;100622.75;5085776;28;20283;-73
2022/01/11 07:25:12;;;;;;;22.50;9.87;;;;;;;-0.51;100.00;100565.41;5091215;28;20227;-74
2022/01/11 07:27:39;;;;;;;8.53;5.97;;;;;;;-0.25;100.00;100630.81;5091559;28;20661;-73
2022/01/11 07:30:09;;;;;;;19.33;9.23;;;;;;;-0.27;100.00;100642.56;5091606;28;20228;-74
2022/01/11 07:32:37;;;;;;;13.80;7.37;;;;;;;-0.37;100.00;100635.09;5091423;28;20198;-74
2022/01/11 07:35:05;;;;;;;23.37;8.43;;;;;;;-0.22;100.00;100646.31;5091640;28;20194;-74
2022/01/11 07:37:32;;;;;;;19.13;8.63;;;;;;;-0.31;100.00;100650.78;5090470;28;20664;-74
2022/01/11 07:39:59;;;;;;;19.77;10.63;;;;;;;-0.46;100.00;100654.88;5081575;28;20602;-74
2022/01/11 07:42:26;;;;;;;13.53;7.57;;;;;;;-0.39;100.00;100646.84;5082150;28;20194;-74
2022/01/11 07:44:54;;;;;;;28.53;6.90;;;;;;;-0.37;100.00;100664.00;5091461;28;20202;-74
2022/01/11 07:47:22;;;;;;;9.00;6.07;;;;;;;-0.31;100.00;100653.31;5091090;28;20197;-74
2022/01/11 07:49:49;;;;;;;21.87;9.27;;;;;;;-0.31;100.00;100650.78;5091545;28;20190;-74
2022/01/11 07:52:17;;;;;;;12.10;6.73;;;;;;;-0.73;100.00;100590.22;5084202;28;20214;-74
2022/01/11 07:54:43;;;;;;;10.00;6.07;;;;;;;-0.34;100.00;100666.75;5070629;28;20627;-74
2022/01/11 07:57:11;;;;;;;11.83;6.67;;;;;;;-0.79;100.00;100587.28;5071790;28;20191;-74
2022/01/11 07:59:37;;;;;;;13.70;8.33;;;;;;;-0.34;100.00;100666.75;5071661;28;20284;-77
2022/01/11 08:02:04;;;;;;;13.37;8.07;;;;;;;-0.37;100.00;100675.84;5070958;28;20627;-75
2022/01/11 08:04:32;;;;;;;12.93;6.83;;;;;;;-0.29;100.00;100679.81;5071770;28;20260;-74
2022/01/11 08:07:00;;;;;;;10.13;7.13;;;;;;;-0.79;100.00;100593.25;5071026;28;20593;-74
2022/01/11 08:09:27;;;;;;;12.63;7.67;;;;;;;-0.62;100.00;100638.56;5071500;28;20730;-74
2022/01/11 08:11:55;;;;;;;17.00;9.07;;;;;;;-0.42;100.00;100679.72;5078970;28;20209;-74
2022/01/11 08:14:22;;;;;;;10.87;6.90;;;;;;;-0.26;100.00;100682.56;5076218;28;20195;-74
2022/01/11 08:16:49;;;;;;;17.83;8.80;;;;;;;-0.75;100.00;100629.97;5070860;28;20199;-74
2022/01/11 08:19:16;;;;;;;28.50;10.70;;;;;;;-0.10;100.00;100698.06;5070164;28;20234;-75
2022/01/11 08:21:44;;;;;;;6.67;4.40;;;;;;;-0.16;100.00;100697.66;5070779;28;20202;-75
2022/01/11 08:24:11;;;;;;;13.53;6.63;;;;;;;-0.26;100.00;100702.94;5070658;28;20202;-75
2022/01/11 08:26:38;;;;;;;10.23;6.83;;;;;;;-0.27;100.00;100698.59;5070562;28;20203;-75
2022/01/11 08:29:04;;;;;;;9.13;5.30;;;;;;;-0.25;100.00;100697.06;5070350;28;20585;-74
2022/01/11 08:31:31;;;;;;;7.60;4.87;;;;;;;-0.35;100.00;100704.84;5075041;28;20205;-76
2022/01/11 08:33:58;;;;;;;11.10;5.13;;;;;;;-0.29;100.00;100695.09;5094394;28;20203;-75
2022/01/11 08:36:25;;;;;;;11.13;7.40;;;;;;;-0.28;100.00;100707.03;5078367;28;20228;-74
2022/01/11 08:38:53;;;;;;;17.80;8.37;;;;;;;-0.18;100.00;100709.44;5072789;28;20230;-74
2022/01/11 08:41:22;;;;;;;6.60;4.77;;;;;;;-0.07;100.00;100711.00;5073001;28;20194;-74
2022/01/11 08:43:49;;;;;;;10.77;5.80;;;;;;;-0.15;100.00;100709.63;5070239;28;20202;-73
2022/01/11 08:46:16;;;;;;;12.67;7.23;;;;;;;-0.22;100.00;100710.00;5070360;28;20195;-74
2022/01/11 08:48:43;;;;;;;17.87;9.23;;;;;;;-0.48;100.00;100697.16;5070154;28;20669;-73
2022/01/11 08:51:10;;;;;;;11.70;7.90;;;;;;;-0.47;100.00;100696.38;5070601;28;20202;-75
2022/01/11 08:53:36;;;;;;;11.70;5.03;;;;;;;-0.35;100.00;100705.72;5071490;28;20206;-74
2022/01/11 08:56:05;;;;;;;11.60;7.23;;;;;;;-0.87;100.00;100618.94;5071299;28;20256;-74
2022/01/11 08:58:32;;;;;;;8.37;6.13;;;;;;;-0.33;100.00;100716.94;5074140;28;20202;-76
2022/01/11 09:00:59;;;;;;;16.73;7.90;;;;;;;-0.43;100.00;100713.66;5090241;28;20683;-73
2022/01/11 09:03:25;;;;;;;12.90;7.53;;;;;;;-0.42;100.00;100711.19;5091932;28;20187;-72
2022/01/11 09:05:53;;;;;;;14.63;7.07;;;;;;;-0.33;100.00;100718.59;5093875;28;20222;-73
2022/01/11 09:08:20;;;;;;;21.63;9.37;;;;;;;-0.33;100.00;100713.50;5094733;28;20194;-73
2022/01/11 09:10:47;;;;;;;15.37;8.10;;;;;;;-0.31;100.00;100717.00;5094748;28;20230;-76
2022/01/11 09:13:16;;;;;;;15.57;6.77;;;;;;;-0.28;100.00;100717.22;5094473;28;20194;-75
2022/01/11 09:15:43;;;;;;;9.93;5.83;;;;;;;-0.26;100.00;100720.75;5094328;28;20201;-73
2022/01/11 09:18:10;;;;;;;10.83;7.97;;;;;;;-0.35;100.00;100718.47;5094549;28;20197;-73
2022/01/11 09:20:37;;;;;;;13.07;6.17;;;;;;;-0.23;100.00;100731.16;5094136;28;20233;-76
2022/01/11 09:23:04;;;;;;;11.83;5.90;;;;;;;-0.27;100.00;100739.38;5094246;28;20669;-76
2022/01/11 09:25:31;;;;;;;10.27;5.57;;;;;;;-0.31;100.00;100728.09;5094327;28;20190;-75
2022/01/11 09:27:57;;;;;;;11.13;5.87;;;;;;;-0.24;100.00;100743.00;5094261;28;20272;-78
2022/01/11 09:30:26;;;;;;;7.67;3.77;;;;;;;-0.20;100.00;100751.75;5093967;28;20190;-76
2022/01/11 09:32:52;;;;;;;10.90;6.67;;;;;;;-0.30;100.00;100744.25;5094359;28;20205;-76
2022/01/11 09:35:19;;;;;;;12.27;5.60;;;;;;;-0.26;100.00;100757.31;5093815;28;20255;-75
2022/01/11 09:37:46;;;;;;;10.27;5.73;;;;;;;-0.21;100.00;100760.16;5085609;28;20260;-75
2022/01/11 09:40:13;;;;;;;10.90;5.90;;;;;;;-0.18;100.00;100766.34;5092885;28;20226;-76
2022/01/11 09:42:40;;;;;;;14.43;6.73;;;;;;;-0.33;100.00;100728.78;5081495;28;20203;-75
2022/01/11 09:45:10;;;;;;;9.97;6.30;;;;;;;-0.18;100.00;100760.41;5082178;28;20657;-74
2022/01/11 09:47:40;;;;;;;6.40;5.37;;;;;;;-0.13;100.00;100764.13;5093098;28;20199;-74
2022/01/11 09:50:09;;;;;;;13.70;5.77;;;;;;;-0.25;100.00;100753.13;5093128;28;20658;-75
2022/01/11 09:52:36;;;;;;;9.47;5.17;;;;;;;-0.16;100.00;100767.34;5092853;28;20205;-73
2022/01/11 09:55:05;;;;;;;11.13;6.60;;;;;;;-0.16;100.00;100753.72;5093003;28;20209;-75
2022/01/11 09:57:32;;;;;;;9.33;4.43;;;;;;;-0.12;100.00;100760.81;5092882;28;20240;-74
2022/01/11 09:59:59;;;;;;;14.77;7.00;;;;;;;-0.14;100.00;100759.78;5093392;28;20234;-74
2022/01/11 10:02:26;;;;;;;6.90;5.30;;;;;;;-0.24;100.00;100745.56;5092869;28;20202;-74
2022/01/11 10:04:58;;;;;;;11.10;6.20;;;;;;;-0.17;100.00;100751.94;5093241;28;20213;-75
2022/01/11 10:07:30;;;;;;;9.07;6.97;;;;;;;-0.16;100.00;100753.72;5092860;28;20190;-75
2022/01/11 10:09:57;;;;;;;15.77;6.13;;;;;;;-0.20;100.00;100749.19;5094042;28;20225;-75
2022/01/11 10:12:24;;;;;;;10.13;5.13;;;;;;;-0.04;100.00;100754.56;5081160;28;20665;-74
2022/01/11 10:14:52;;;;;;;5.57;4.70;;;;;;;0.06;100.00;100751.84;5092073;28;20202;-75
2022/01/11 10:17:22;;;;;;;13.73;7.27;;;;;;;0.02;100.00;100744.78;5093022;28;20198;-73
2022/01/11 10:19:51;;;;;;;10.20;5.27;;;;;;;-0.17;100.00;100722.25;5092727;28;20773;-74
2022/01/11 10:22:21;;;;;;;12.83;8.07;;;;;;;-0.09;100.00;100738.97;5093319;28;20190;-74
2022/01/11 10:24:50;;;;;;;10.43;7.00;;;;;;;0.04;100.00;100758.50;5092638;28;20205;-74
2022/01/11 10:27:20;;;;;;;15.03;6.93;;;;;;;0.02;100.00;100774.47;5093086;28;20190;-74
2022/01/11 10:29:48;;;;;;;10.27;6.27;;;;;;;0.05;100.00;100779.78;5093415;28;20255;-77
2022/01/11 10:32:19;;;;;;;19.37;8.20;;;;;;;0.17;100.00;100773.84;5092784;28;20610;-74
2022/01/11 10:34:49;;;;;;;13.67;8.97;;;;;;;0.18;100.00;100773.03;5092395;28;20194;-74
2022/01/11 10:37:28;;;;;;;10.17;4.83;;;;;;;-0.05;100.00;100747.69;5092087;28;20595;-74
2022/01/11 10:40:02;;;;;;;10.47;5.60;;;;;;;-0.07;100.00;100732.28;5092930;28;20262;-74
2022/01/11 10:42:33;;;;;;;7.87;3.83;;;;;;;0.08;100.00;100788.50;5092816;28;20198;-74
2022/01/11 10:45:03;;;;;;;8.37;4.93;;;;;;;-0.17;100.00;100747.75;5092774;28;20198;-76
2022/01/11 10:47:33;;;;;;;7.53;5.07;;;;;;;0.19;100.00;100792.66;5079982;28;20202;-76
2022/01/11 10:50:12;;;;;;;7.67;5.40;;;;;;;0.11;100.00;100790.41;5072393;28;20747;-76
2022/01/11 10:52:42;;;;;;;8.97;3.60;;;;;;;0.08;100.00;100795.25;5082417;28;20194;-75
2022/01/11 10:55:13;;;;;;;5.43;4.50;;;;;;;0.07;100.00;100791.88;5094908;28;20193;-75
2022/01/11 10:57:41;;;;;;;10.37;6.33;;;;;;;-0.03;100.00;100792.88;5072493;28;20198;-75
2022/01/11 11:00:18;;;;;;;5.00;4.30;;;;;;;0.10;100.00;100789.50;5072606;28;20230;-76
2022/01/11 11:02:49;;;;;;;7.43;4.53;;;;;;;0.16;100.00;100786.47;5073196;28;20198;-74
2022/01/11 11:05:19;;;;;;;7.57;4.63;;;;;;;0.10;100.00;100778.44;5091448;28;20309;-75
2022/01/11 11:07:59;;;;;;;8.33;5.33;;;;;;;0.09;100.00;100797.94;5090231;28;20194;-74
2022/01/11 11:10:40;;;;;;;7.80;4.80;;;;;;;0.21;100.00;100798.78;5095851;28;20190;-75
2022/01/11 11:13:10;;;;;;;13.47;6.97;;;;;;;0.00;100.00;100807.53;5103740;28;20202;-74
2022/01/11 11:15:39;;;;;;;11.90;6.30;;;;;;;0.00;100.00;100799.88;5084414;28;20203;-75
2022/01/11 11:18:20;;;;;;;8.47;5.47;;;;;;;0.13;100.00;100799.91;5072217;28;20195;-73
2022/01/11 11:20:47;;;;;;;9.20;5.77;;;;;;;0.10;100.00;100802.25;5071372;28;20234;-75